< < Back
Terminal Aerodrome Forecast


Current Version              Previous Versions:   1  2  3  4  5  6  7  8  9  

Terminal Aerodrome Forecast

427
FTUS42 KFFC 301720
TAFFTY
TAF
KFTY 301720Z 3018/3118 34014G25KT P6SM SKC
     FM302300 34005KT P6SM SKC
     FM310400 00000KT P6SM FEW180=



Latest METAR

585
SAUS70 KWBC 311300 RRC
MTRFTY
METAR KFTY 311253Z 00000KT 10SM CLR M02/M07 A3035 RMK AO2 SLP283
T10221067


USA.gov is the U.S. government's official web portal to all federal, state and local government web resources and services.